Time;durP1;ratioP1;P1;durP2;ratioP2;P2;SDS_P1;SDS_P2;PMS_P1;PMS_P2;Temp;Humidity;BMP_temperature;BMP_pressure;BME280_temperature;BME280_humidity;BME280_pressure;Samples;Min_cycle;Max_cycle;Signal;HPM_P1;HPM_P2
2022/10/12 00:01:40;;;;;;;100.70;94.27;;;13.20;99.90;;;;;;5066449;28;20209;-85
2022/10/12 00:04:06;;;;;;;100.60;94.20;;;13.20;99.90;;;;;;5067137;28;20198;-86
2022/10/12 00:06:31;;;;;;;96.47;89.83;;;13.10;99.90;;;;;;5073689;28;20242;-84
2022/10/12 00:08:57;;;;;;;93.97;88.00;;;13.10;99.90;;;;;;5068224;28;20183;-85
2022/10/12 00:11:26;;;;;;;85.00;79.53;;;13.00;99.90;;;;;;5048158;28;20210;-85
2022/10/12 00:13:52;;;;;;;62.53;58.57;;;12.90;99.90;;;;;;5046777;28;20292;-85
2022/10/12 00:16:20;;;;;;;42.80;39.40;;;12.90;99.90;;;;;;5057110;28;20186;-83
2022/10/12 00:18:56;;;;;;;26.20;22.53;;;12.80;99.90;;;;;;5050705;28;20257;-87
2022/10/12 00:21:23;;;;;;;18.70;16.77;;;12.70;99.90;;;;;;5040550;28;20260;-87
2022/10/12 00:23:49;;;;;;;22.00;19.77;;;12.60;99.90;;;;;;5054882;28;20194;-87
2022/10/12 00:26:17;;;;;;;57.87;54.07;;;12.50;99.90;;;;;;5056202;28;20708;-87
2022/10/12 00:28:44;;;;;;;51.60;47.83;;;12.40;99.90;;;;;;5055912;28;20181;-87
2022/10/12 00:31:18;;;;;;;31.27;28.83;;;12.30;99.90;;;;;;5056861;28;20567;-87
2022/10/12 00:33:45;;;;;;;23.20;20.97;;;12.30;99.90;;;;;;5056321;28;20252;-87
2022/10/12 00:36:13;;;;;;;23.43;16.17;;;12.20;99.90;;;;;;5041159;28;20198;-87
2022/10/12 00:38:39;;;;;;;21.10;16.43;;;12.10;99.90;;;;;;5051244;28;20193;-86
2022/10/12 00:41:05;;;;;;;21.63;16.07;;;12.10;99.90;;;;;;5057020;28;20203;-86
2022/10/12 00:43:40;;;;;;;18.37;16.73;;;12.00;99.90;;;;;;5057453;28;20274;-87
2022/10/12 00:46:26;;;;;;;22.97;20.80;;;12.00;99.90;;;;;;5042658;28;20194;-87
2022/10/12 00:48:59;;;;;;;26.17;24.07;;;12.00;99.90;;;;;;5042115;28;20569;-87
2022/10/12 00:51:26;;;;;;;32.30;29.87;;;11.90;99.90;;;;;;5056637;28;20657;-86
2022/10/12 00:54:00;;;;;;;27.37;24.03;;;11.90;99.90;;;;;;5056660;28;20215;-86
2022/10/12 00:56:30;;;;;;;20.90;16.07;;;11.90;99.90;;;;;;5065001;28;20209;-86
2022/10/12 00:58:59;;;;;;;27.20;24.77;;;11.80;99.90;;;;;;5060485;28;20182;-86
2022/10/12 01:01:26;;;;;;;29.60;27.10;;;11.80;99.90;;;;;;5058731;28;20209;-86
2022/10/12 01:03:51;;;;;;;21.90;19.80;;;11.70;99.90;;;;;;5060836;28;20210;-85
2022/10/12 01:06:18;;;;;;;23.10;17.87;;;11.70;99.90;;;;;;5059831;28;20654;-84
2022/10/12 01:08:45;;;;;;;22.50;20.20;;;11.70;99.90;;;;;;5060466;28;20185;-85
2022/10/12 01:11:12;;;;;;;22.10;20.10;;;11.70;99.90;;;;;;5058888;28;20190;-83
2022/10/12 01:13:37;;;;;;;26.37;23.63;;;11.70;99.90;;;;;;5054626;28;20228;-87
2022/10/12 01:16:32;;;;;;;25.73;23.43;;;11.60;99.90;;;;;;5055592;28;20678;-86
2022/10/12 01:19:23;;;;;;;21.33;18.90;;;11.50;99.90;;;;;;5036792;28;20666;-85
2022/10/12 01:21:58;;;;;;;27.47;19.47;;;11.50;99.90;;;;;;5035835;28;20230;-85
2022/10/12 01:24:40;;;;;;;20.77;19.00;;;11.50;99.90;;;;;;5056283;28;20203;-85
2022/10/12 01:27:37;;;;;;;20.60;18.83;;;11.50;99.90;;;;;;5042539;28;20265;-83
2022/10/12 01:30:09;;;;;;;18.73;16.93;;;11.50;99.90;;;;;;5036591;28;20185;-85
2022/10/12 01:32:54;;;;;;;18.77;16.90;;;11.50;99.90;;;;;;5045792;28;20600;-87
2022/10/12 01:35:24;;;;;;;21.07;19.23;;;11.50;99.90;;;;;;5038267;28;20206;-87
2022/10/12 01:37:53;;;;;;;21.57;18.67;;;11.50;99.90;;;;;;5039518;28;20179;-86
2022/10/12 01:40:29;;;;;;;21.10;19.03;;;11.50;99.90;;;;;;5038893;28;20175;-86
2022/10/12 01:42:57;;;;;;;22.27;19.93;;;11.40;99.90;;;;;;5038761;28;20226;-86
2022/10/12 01:45:23;;;;;;;26.23;23.77;;;11.40;99.90;;;;;;5040266;28;20217;-86
2022/10/12 01:47:52;;;;;;;24.50;22.23;;;11.30;99.90;;;;;;5034013;28;20182;-86
2022/10/12 01:50:20;;;;;;;26.03;23.30;;;11.20;99.90;;;;;;5033830;28;20233;-85
2022/10/12 01:52:58;;;;;;;24.23;19.17;;;11.20;99.90;;;;;;5035881;28;20675;-87
2022/10/12 01:55:36;;;;;;;24.60;22.50;;;11.10;99.90;;;;;;5036987;28;20297;-86
2022/10/12 01:58:13;;;;;;;25.83;23.63;;;11.10;99.90;;;;;;5037223;28;20285;-86
2022/10/12 02:00:53;;;;;;;27.03;24.57;;;11.10;99.90;;;;;;5061724;28;20296;-87
2022/10/12 02:03:43;;;;;;;21.47;19.40;;;11.10;99.90;;;;;;5063114;28;20189;-87
2022/10/12 02:06:14;;;;;;;23.10;20.90;;;11.10;99.90;;;;;;5015010;28;20260;-87
2022/10/12 02:08:49;;;;;;;23.53;21.57;;;11.10;99.90;;;;;;5055805;28;20588;-86
2022/10/12 02:11:17;;;;;;;23.43;21.10;;;11.00;99.90;;;;;;5054863;28;20178;-86
2022/10/12 02:14:06;;;;;;;22.10;20.13;;;11.10;99.90;;;;;;5056067;28;20206;-86
2022/10/12 02:16:41;;;;;;;23.83;21.47;;;11.10;99.90;;;;;;5055040;28;20553;-86
2022/10/12 02:19:10;;;;;;;21.57;19.17;;;11.00;99.90;;;;;;5054572;28;20201;-86
2022/10/12 02:21:37;;;;;;;27.23;21.10;;;11.00;99.90;;;;;;5053484;28;20695;-86
2022/10/12 02:24:06;;;;;;;23.37;21.40;;;11.00;99.90;;;;;;5055148;28;20221;-87
2022/10/12 02:26:36;;;;;;;25.73;23.37;;;10.90;99.90;;;;;;5053620;28;20871;-87
2022/10/12 02:29:08;;;;;;;29.73;27.33;;;10.90;99.90;;;;;;5054009;28;20198;-86
2022/10/12 02:31:36;;;;;;;24.23;22.23;;;10.90;99.90;;;;;;5071723;28;20167;-84
2022/10/12 02:34:17;;;;;;;25.80;22.10;;;10.80;99.90;;;;;;5077483;28;20213;-84
2022/10/12 02:37:04;;;;;;;20.93;16.83;;;10.80;99.90;;;;;;5074820;28;20185;-84
2022/10/12 02:40:08;;;;;;;18.13;16.23;;;10.70;99.90;;;;;;5069356;28;20175;-84
2022/10/12 02:42:38;;;;;;;21.33;17.63;;;10.70;99.90;;;;;;5070227;28;20213;-85
2022/10/12 02:45:07;;;;;;;22.17;19.90;;;10.60;99.90;;;;;;5069103;28;20206;-86
2022/10/12 02:47:35;;;;;;;19.87;17.53;;;10.60;99.90;;;;;;5068399;28;20187;-84
2022/10/12 02:50:02;;;;;;;19.53;17.17;;;10.50;99.90;;;;;;5069553;28;20182;-85
2022/10/12 02:52:30;;;;;;;20.73;17.20;;;10.50;99.90;;;;;;5062046;28;20338;-87
2022/10/12 02:54:56;;;;;;;27.63;17.93;;;10.50;99.90;;;;;;5058401;28;20630;-86
2022/10/12 02:57:22;;;;;;;20.83;18.70;;;10.40;99.90;;;;;;5070494;28;20182;-87
2022/10/12 02:59:47;;;;;;;20.00;18.03;;;10.40;99.90;;;;;;5039992;28;20183;-86
2022/10/12 03:02:13;;;;;;;30.13;27.77;;;10.50;99.90;;;;;;5043520;28;20264;-87
2022/10/12 03:04:39;;;;;;;28.77;26.57;;;10.50;99.90;;;;;;5049003;28;20263;-87
2022/10/12 03:07:05;;;;;;;28.40;25.97;;;10.50;99.90;;;;;;5055447;28;20688;-87
2022/10/12 03:09:31;;;;;;;27.97;25.27;;;10.50;99.90;;;;;;5060091;28;20261;-86
2022/10/12 03:11:58;;;;;;;29.47;27.17;;;10.50;99.90;;;;;;5053839;28;20202;-87
2022/10/12 03:14:26;;;;;;;27.63;25.53;;;10.50;99.90;;;;;;5045319;28;20207;-87
2022/10/12 03:16:52;;;;;;;27.80;25.00;;;10.50;99.90;;;;;;5038136;28;20511;-87
2022/10/12 03:19:18;;;;;;;26.30;23.57;;;10.60;99.90;;;;;;5052805;28;20243;-86
2022/10/12 03:21:43;;;;;;;26.13;23.93;;;10.60;99.90;;;;;;5052733;28;20252;-85
2022/10/12 03:24:10;;;;;;;25.67;23.57;;;10.60;99.90;;;;;;5052609;28;20210;-87
2022/10/12 03:26:36;;;;;;;27.97;25.43;;;10.60;99.90;;;;;;5050959;28;20186;-86
2022/10/12 03:29:02;;;;;;;41.50;38.60;;;10.70;99.90;;;;;;5032374;28;20266;-86
2022/10/12 03:31:29;;;;;;;22.60;17.97;;;10.60;99.90;;;;;;5032601;28;20233;-85
2022/10/12 03:33:55;;;;;;;19.83;17.97;;;10.70;99.90;;;;;;5032760;28;20829;-86
2022/10/12 03:36:23;;;;;;;22.73;20.60;;;10.70;99.90;;;;;;5050397;28;20178;-85
2022/10/12 03:38:48;;;;;;;46.77;43.40;;;10.70;99.90;;;;;;5066026;28;20202;-83
2022/10/12 03:41:14;;;;;;;24.57;22.27;;;10.70;99.90;;;;;;5077747;28;20273;-87
2022/10/12 03:43:40;;;;;;;20.90;18.80;;;10.70;99.90;;;;;;5059005;28;20202;-86
2022/10/12 03:46:06;;;;;;;26.47;24.20;;;10.70;99.90;;;;;;5054761;28;20671;-86
2022/10/12 03:48:31;;;;;;;31.00;28.13;;;10.70;99.90;;;;;;5063178;28;20182;-84
2022/10/12 03:50:57;;;;;;;31.80;29.37;;;10.70;99.90;;;;;;5048467;28;20195;-86
2022/10/12 03:53:23;;;;;;;33.70;31.10;;;10.70;99.90;;;;;;5045692;28;20245;-85
2022/10/12 03:55:49;;;;;;;33.40;30.43;;;10.80;99.90;;;;;;5032981;28;20187;-84
2022/10/12 03:58:15;;;;;;;39.43;36.47;;;10.70;99.90;;;;;;5031222;28;20175;-86
2022/10/12 04:00:40;;;;;;;28.93;26.33;;;10.80;99.90;;;;;;5031680;28;20182;-87
2022/10/12 04:03:06;;;;;;;23.63;21.63;;;10.80;99.90;;;;;;5031606;28;20574;-85
2022/10/12 04:05:32;;;;;;;22.43;20.00;;;10.90;99.90;;;;;;5031986;28;20179;-84
2022/10/12 04:07:58;;;;;;;20.87;17.80;;;10.90;99.90;;;;;;5043969;28;20195;-86
2022/10/12 04:10:24;;;;;;;30.07;27.37;;;10.90;99.90;;;;;;5050666;28;20260;-86
2022/10/12 04:12:50;;;;;;;30.10;27.50;;;11.00;99.90;;;;;;5050628;28;20205;-86
2022/10/12 04:15:19;;;;;;;16.20;14.40;;;11.00;99.90;;;;;;5050566;28;20198;-86
2022/10/12 04:17:45;;;;;;;18.53;13.97;;;11.00;99.90;;;;;;5049976;28;20178;-87
2022/10/12 04:20:11;;;;;;;16.90;15.13;;;11.10;99.90;;;;;;5050504;28;20217;-85
2022/10/12 04:22:37;;;;;;;17.63;15.33;;;11.10;99.90;;;;;;5050167;28;20576;-85
2022/10/12 04:25:03;;;;;;;20.57;16.23;;;11.10;99.90;;;;;;5050432;28;20212;-85
2022/10/12 04:27:30;;;;;;;21.00;16.40;;;11.20;99.90;;;;;;5050519;28;20178;-83
2022/10/12 04:29:55;;;;;;;22.63;17.27;;;11.20;99.90;;;;;;5050930;28;20655;-84
2022/10/12 04:32:21;;;;;;;23.37;21.27;;;11.20;99.90;;;;;;5051683;28;20671;-84
2022/10/12 04:34:47;;;;;;;18.83;16.00;;;11.20;99.90;;;;;;5052436;28;20204;-82
2022/10/12 04:37:13;;;;;;;18.07;13.53;;;11.20;99.90;;;;;;5074579;28;20222;-82
2022/10/12 04:39:38;;;;;;;15.37;12.83;;;11.20;99.90;;;;;;5076317;28;20191;-81
2022/10/12 04:42:05;;;;;;;22.70;12.80;;;11.20;99.90;;;;;;5073767;28;20217;-77
2022/10/12 04:44:32;;;;;;;17.27;12.93;;;11.30;99.90;;;;;;5050546;28;20294;-70
2022/10/12 04:46:58;;;;;;;25.10;22.90;;;11.40;99.90;;;;;;5051050;28;20178;-69
2022/10/12 04:49:24;;;;;;;25.17;22.77;;;11.40;99.90;;;;;;5049685;28;20187;-68
2022/10/12 04:51:50;;;;;;;22.30;20.37;;;11.50;99.90;;;;;;5048486;28;20189;-69
2022/10/12 04:54:15;;;;;;;16.30;14.60;;;11.50;99.90;;;;;;5008487;28;1197795;-69
2022/10/12 04:56:41;;;;;;;21.77;13.87;;;11.40;99.90;;;;;;5049607;28;20679;-69
2022/10/12 04:59:07;;;;;;;17.80;15.33;;;11.40;99.90;;;;;;5048876;28;20186;-69
2022/10/12 05:01:33;;;;;;;22.03;19.77;;;11.40;99.90;;;;;;5048785;28;20209;-69
2022/10/12 05:03:59;;;;;;;24.73;22.77;;;11.40;99.90;;;;;;5038438;28;20239;-69
2022/10/12 05:06:25;;;;;;;29.97;27.17;;;11.40;99.90;;;;;;5041683;28;20182;-70
2022/10/12 05:08:51;;;;;;;28.07;25.97;;;11.30;99.90;;;;;;5047939;28;20594;-70
2022/10/12 05:11:17;;;;;;;24.30;22.10;;;11.20;99.90;;;;;;5050142;28;20243;-72
2022/10/12 05:13:42;;;;;;;20.13;14.30;;;11.20;99.90;;;;;;5049030;28;20214;-70
2022/10/12 05:16:08;;;;;;;21.50;19.50;;;11.10;99.90;;;;;;5050045;28;20186;-70
2022/10/12 05:18:34;;;;;;;23.13;20.13;;;11.10;99.90;;;;;;5032984;28;20194;-75
2022/10/12 05:21:00;;;;;;;23.97;19.07;;;11.00;99.90;;;;;;5029646;28;20217;-75
2022/10/12 05:23:25;;;;;;;21.57;16.67;;;11.00;99.90;;;;;;5029232;28;20569;-75
2022/10/12 05:25:55;;;;;;;27.77;18.77;;;11.00;99.90;;;;;;5030614;28;20542;-74
2022/10/12 05:28:21;;;;;;;25.13;22.53;;;11.00;99.90;;;;;;5042630;28;20223;-76
2022/10/12 05:30:50;;;;;;;25.93;23.23;;;11.10;99.90;;;;;;5049823;28;20697;-75
2022/10/12 05:33:16;;;;;;;26.77;23.80;;;11.10;99.90;;;;;;5050339;28;20640;-75
2022/10/12 05:35:43;;;;;;;26.23;23.43;;;11.10;99.90;;;;;;5042711;28;20261;-74
2022/10/12 05:38:10;;;;;;;23.40;21.03;;;11.10;99.90;;;;;;5049097;28;20192;-75
2022/10/12 05:40:35;;;;;;;22.37;17.40;;;11.20;99.90;;;;;;5047694;28;20716;-74
2022/10/12 05:43:02;;;;;;;18.90;17.00;;;11.20;99.90;;;;;;5034265;28;20210;-75
2022/10/12 05:45:27;;;;;;;25.00;19.73;;;11.20;99.90;;;;;;5030402;28;20841;-75
2022/10/12 05:47:53;;;;;;;27.00;18.17;;;11.20;99.90;;;;;;5028852;28;20190;-75
2022/10/12 05:50:20;;;;;;;21.27;18.43;;;11.20;99.90;;;;;;5030376;28;20178;-74
2022/10/12 05:52:46;;;;;;;20.40;16.63;;;11.30;99.90;;;;;;5028891;28;20595;-75
2022/10/12 05:55:12;;;;;;;22.27;17.73;;;11.40;99.90;;;;;;5029362;28;20275;-76
2022/10/12 05:57:38;;;;;;;22.33;17.87;;;11.40;99.90;;;;;;5048814;28;20190;-76
2022/10/12 06:00:07;;;;;;;22.77;20.30;;;11.40;99.90;;;;;;5051227;28;20214;-75
2022/10/12 06:02:33;;;;;;;28.77;22.27;;;11.40;99.90;;;;;;5051072;28;20414;-76
2022/10/12 06:04:59;;;;;;;24.30;21.87;;;11.50;99.90;;;;;;5050155;28;20193;-76
2022/10/12 06:07:25;;;;;;;19.50;16.67;;;11.50;99.90;;;;;;5048411;28;20221;-76
2022/10/12 06:09:51;;;;;;;22.63;15.83;;;11.60;99.90;;;;;;5052301;28;20177;-75
2022/10/12 06:12:17;;;;;;;20.70;15.30;;;11.70;99.90;;;;;;5047343;28;20671;-76
2022/10/12 06:14:43;;;;;;;24.20;16.03;;;11.70;99.90;;;;;;5035913;28;20304;-75
2022/10/12 06:17:10;;;;;;;19.17;15.77;;;11.80;99.90;;;;;;5052235;28;20194;-75
2022/10/12 06:19:36;;;;;;;23.97;21.60;;;11.80;99.90;;;;;;5053024;28;20197;-76
2022/10/12 06:22:02;;;;;;;32.07;29.33;;;11.80;99.90;;;;;;5053730;28;20300;-76
2022/10/12 06:24:27;;;;;;;36.43;33.53;;;11.90;99.90;;;;;;5053599;28;20202;-76
2022/10/12 06:26:53;;;;;;;47.43;43.63;;;12.00;99.90;;;;;;5052837;28;20251;-76
2022/10/12 06:29:22;;;;;;;54.23;50.10;;;12.00;99.90;;;;;;5052521;28;20603;-75
2022/10/12 06:31:48;;;;;;;42.83;39.90;;;12.10;99.90;;;;;;5054332;28;20274;-75
2022/10/12 06:34:15;;;;;;;26.90;24.23;;;12.10;99.90;;;;;;5052869;28;20204;-76
2022/10/12 06:36:41;;;;;;;72.23;66.83;;;12.20;99.90;;;;;;5052773;28;20204;-75
2022/10/12 06:39:08;;;;;;;122.50;114.13;;;12.20;99.90;;;;;;5051487;28;20821;-70
2022/10/12 06:41:35;;;;;;;147.80;139.27;;;12.30;99.90;;;;;;5053283;28;20209;-69
2022/10/12 06:44:00;;;;;;;200.07;188.07;;;12.40;99.90;;;;;;5053496;28;20671;-70
2022/10/12 06:46:27;;;;;;;202.20;190.47;;;12.40;99.90;;;;;;5051698;28;20174;-70
2022/10/12 06:48:53;;;;;;;189.67;177.97;;;12.40;99.90;;;;;;5032020;28;20175;-69
2022/10/12 06:51:19;;;;;;;186.37;174.87;;;12.50;99.90;;;;;;5033256;28;20685;-69
2022/10/12 06:53:44;;;;;;;197.67;185.40;;;12.60;99.90;;;;;;5033253;28;20253;-69
2022/10/12 06:56:11;;;;;;;119.53;112.27;;;12.60;99.90;;;;;;5036041;28;20187;-70
2022/10/12 06:58:37;;;;;;;84.37;78.83;;;12.70;99.90;;;;;;5042552;28;20187;-69
2022/10/12 07:01:09;;;;;;;78.50;73.03;;;12.70;99.90;;;;;;5032874;28;20280;-70
2022/10/12 07:03:35;;;;;;;76.70;71.40;;;12.80;99.90;;;;;;5032262;28;20818;-71
2022/10/12 07:06:09;;;;;;;73.00;68.47;;;12.80;99.90;;;;;;5037592;28;20227;-70
2022/10/12 07:08:36;;;;;;;78.90;73.83;;;12.80;99.90;;;;;;5052837;28;20213;-75
2022/10/12 07:11:03;;;;;;;81.47;76.40;;;12.80;99.90;;;;;;5053296;28;20239;-75
2022/10/12 07:13:31;;;;;;;78.93;73.77;;;12.90;99.90;;;;;;5055572;28;20725;-75
2022/10/12 07:15:56;;;;;;;84.93;79.50;;;13.00;99.90;;;;;;5050751;28;20189;-75
2022/10/12 07:18:22;;;;;;;64.53;60.03;;;13.20;99.90;;;;;;5034409;28;20191;-75
2022/10/12 07:20:49;;;;;;;34.07;30.97;;;13.30;99.90;;;;;;5034898;28;20237;-76
2022/10/12 07:23:15;;;;;;;21.47;19.47;;;13.40;99.90;;;;;;5031936;28;20833;-75
2022/10/12 07:25:48;;;;;;;20.87;15.97;;;13.50;99.90;;;;;;5032803;28;20210;-77
2022/10/12 07:28:14;;;;;;;19.13;13.67;;;13.50;99.90;;;;;;5053121;28;20232;-76
2022/10/12 07:30:40;;;;;;;15.67;13.83;;;13.60;99.90;;;;;;5053079;28;20221;-77
2022/10/12 07:33:06;;;;;;;31.23;28.43;;;13.60;99.90;;;;;;5051750;28;20218;-75
2022/10/12 07:35:32;;;;;;;43.03;39.57;;;13.70;99.90;;;;;;5051510;28;20204;-75
2022/10/12 07:37:58;;;;;;;56.07;52.37;;;13.80;99.90;;;;;;5031259;28;20179;-75
2022/10/12 07:40:25;;;;;;;113.97;107.17;;;13.90;99.90;;;;;;5031534;28;20717;-76
2022/10/12 07:42:51;;;;;;;95.77;89.97;;;14.00;99.90;;;;;;5032598;28;20259;-76
2022/10/12 07:45:17;;;;;;;66.80;62.17;;;14.10;99.90;;;;;;5032973;28;20198;-75
2022/10/12 07:47:43;;;;;;;36.13;33.03;;;14.30;99.90;;;;;;5032247;28;20270;-74
2022/10/12 07:50:09;;;;;;;50.50;46.63;;;14.50;99.90;;;;;;5032703;28;20175;-76
2022/10/12 07:52:35;;;;;;;53.80;49.97;;;14.60;99.90;;;;;;5032551;28;20187;-76
2022/10/12 07:55:00;;;;;;;53.83;49.53;;;14.70;99.90;;;;;;5032611;28;20695;-75
2022/10/12 07:57:27;;;;;;;38.13;34.93;;;14.90;99.90;;;;;;5032667;28;20635;-76
2022/10/12 08:00:13;;;;;;;29.03;20.00;;;14.90;99.90;;;;;;5032475;28;20183;-75
2022/10/12 08:02:39;;;;;;;21.50;17.03;;;14.90;99.90;;;;;;5046302;28;20229;-75
2022/10/12 08:05:05;;;;;;;22.60;18.57;;;15.00;99.90;;;;;;5051129;28;20226;-75
2022/10/12 08:07:31;;;;;;;19.97;17.90;;;15.10;99.90;;;;;;5050172;28;20178;-75
2022/10/12 08:09:57;;;;;;;19.43;17.53;;;15.10;99.90;;;;;;5052244;28;20702;-76
2022/10/12 08:12:23;;;;;;;27.03;23.97;;;15.30;99.90;;;;;;5052098;28;20851;-76
2022/10/12 08:14:49;;;;;;;35.03;31.93;;;15.40;99.90;;;;;;5052117;28;20207;-76
2022/10/12 08:17:14;;;;;;;27.97;25.20;;;15.60;99.90;;;;;;5051105;28;20182;-77
2022/10/12 08:19:40;;;;;;;23.17;21.10;;;15.80;99.90;;;;;;5051891;28;20179;-76
2022/10/12 08:22:06;;;;;;;26.53;21.67;;;15.90;99.90;;;;;;5052207;28;20299;-76
2022/10/12 08:24:34;;;;;;;25.10;22.47;;;15.90;99.90;;;;;;5052349;28;20195;-78
2022/10/12 08:27:00;;;;;;;23.70;21.03;;;16.00;99.90;;;;;;5041385;28;20587;-76
2022/10/12 08:29:26;;;;;;;20.87;18.23;;;16.00;99.90;;;;;;5032201;28;20186;-76
2022/10/12 08:31:53;;;;;;;21.97;16.87;;;16.20;99.90;;;;;;5033806;28;20179;-77
2022/10/12 08:34:19;;;;;;;22.13;17.60;;;16.20;99.90;;;;;;5033223;28;20643;-76
2022/10/12 08:36:45;;;;;;;24.20;18.77;;;16.40;99.90;;;;;;5040070;28;20554;-76
2022/10/12 08:39:10;;;;;;;23.17;17.27;;;16.50;99.90;;;;;;5051804;28;20178;-76
2022/10/12 08:41:54;;;;;;;25.47;18.47;;;16.60;99.90;;;;;;5051645;28;20245;-76
2022/10/12 08:44:32;;;;;;;28.83;26.23;;;16.80;99.90;;;;;;5050087;28;20683;-77
2022/10/12 08:47:12;;;;;;;34.07;31.10;;;17.10;99.90;;;;;;5040902;28;20193;-77
2022/10/12 08:49:39;;;;;;;25.37;22.80;;;17.20;99.90;;;;;;5030061;28;20175;-76
2022/10/12 08:52:12;;;;;;;36.40;32.87;;;17.30;99.90;;;;;;5031333;28;20185;-76
2022/10/12 08:54:42;;;;;;;37.87;34.60;;;17.40;99.90;;;;;;5031156;28;20231;-77
2022/10/12 08:57:18;;;;;;;34.13;31.17;;;17.40;99.90;;;;;;5050635;28;20182;-77
2022/10/12 08:59:45;;;;;;;34.80;31.57;;;17.60;99.90;;;;;;5052747;28;20197;-79
2022/10/12 09:02:35;;;;;;;27.40;24.83;;;17.80;99.90;;;;;;5049978;28;20206;-77
2022/10/12 09:05:07;;;;;;;33.77;30.37;;;18.00;99.90;;;;;;5049882;28;20582;-77
2022/10/12 09:07:39;;;;;;;32.73;29.47;;;17.90;99.90;;;;;;5036137;28;20652;-77
2022/10/12 09:10:23;;;;;;;26.27;23.57;;;18.00;99.90;;;;;;5031261;28;20249;-77
2022/10/12 09:12:58;;;;;;;27.50;23.17;;;18.10;99.90;;;;;;5030111;28;20652;-77
2022/10/12 09:15:31;;;;;;;25.30;22.57;;;18.10;99.90;;;;;;5029865;28;20264;-80
2022/10/12 09:17:59;;;;;;;23.73;21.13;;;18.40;99.90;;;;;;5046755;28;20178;-77
2022/10/12 09:20:44;;;;;;;23.83;19.33;;;18.40;99.90;;;;;;5030900;28;20179;-76
2022/10/12 09:23:23;;;;;;;25.83;20.00;;;18.60;99.90;;;;;;5029710;28;20236;-75
2022/10/12 09:25:49;;;;;;;27.30;24.53;;;18.70;99.90;;;;;;5030957;28;20214;-77
2022/10/12 09:28:36;;;;;;;38.47;34.83;;;18.40;99.90;;;;;;5049864;28;20180;-77
2022/10/12 09:31:10;;;;;;;31.47;28.73;;;18.40;99.90;;;;;;5050681;28;20182;-76
2022/10/12 09:33:57;;;;;;;35.50;31.87;;;18.50;99.90;;;;;;5049578;28;20237;-77
2022/10/12 09:36:27;;;;;;;36.77;33.23;;;18.40;99.90;;;;;;5045762;28;20183;-76
2022/10/12 09:38:54;;;;;;;31.33;28.17;;;18.30;99.90;;;;;;5030611;28;20607;-76
2022/10/12 09:41:24;;;;;;;36.90;33.43;;;18.20;99.90;;;;;;5031355;28;20305;-76
2022/10/12 09:43:53;;;;;;;37.27;33.90;;;18.10;99.90;;;;;;5034185;28;20202;-76
2022/10/12 09:46:47;;;;;;;35.70;32.63;;;18.10;99.90;;;;;;5033909;28;20185;-77
2022/10/12 09:49:12;;;;;;;32.87;29.93;;;18.00;99.90;;;;;;5034332;28;20187;-76
2022/10/12 09:51:38;;;;;;;33.93;30.73;;;18.10;99.90;;;;;;5033565;28;20187;-76
2022/10/12 09:54:05;;;;;;;30.50;25.17;;;18.10;99.90;;;;;;5034672;28;20237;-76
2022/10/12 09:56:46;;;;;;;24.07;21.00;;;18.10;99.90;;;;;;5039069;28;20594;-76
2022/10/12 09:59:21;;;;;;;25.83;21.37;;;18.10;99.90;;;;;;5054422;28;20614;-77
2022/10/12 10:02:22;;;;;;;22.60;18.13;;;18.10;99.90;;;;;;5054849;28;20213;-75
2022/10/12 10:04:50;;;;;;;19.97;16.33;;;18.20;99.90;;;;;;5043700;28;20205;-76
2022/10/12 10:07:29;;;;;;;20.63;17.13;;;18.30;99.90;;;;;;5051521;28;20179;-77
2022/10/12 10:10:11;;;;;;;20.40;16.60;;;18.30;99.90;;;;;;5053204;28;20190;-76
2022/10/12 10:12:48;;;;;;;20.47;15.13;;;18.30;99.90;;;;;;5053225;28;20628;-76
2022/10/12 10:15:24;;;;;;;22.70;14.60;;;18.30;99.90;;;;;;5054206;28;20201;-76
2022/10/12 10:17:53;;;;;;;21.50;16.33;;;18.30;99.90;;;;;;5037960;28;20534;-76
2022/10/12 10:20:42;;;;;;;23.17;15.40;;;18.30;99.90;;;;;;5034125;28;20189;-76
2022/10/12 10:23:28;;;;;;;19.00;16.83;;;18.30;99.90;;;;;;5033681;28;20201;-74
2022/10/12 10:26:02;;;;;;;19.83;15.30;;;18.20;99.90;;;;;;5034368;28;20294;-76
2022/10/12 10:28:31;;;;;;;18.93;15.63;;;18.20;99.90;;;;;;5054600;28;20204;-77
2022/10/12 10:31:06;;;;;;;22.23;15.17;;;18.10;99.90;;;;;;5054213;28;20271;-76
2022/10/12 10:33:34;;;;;;;15.77;14.07;;;18.10;99.90;;;;;;5062379;28;20198;-76
2022/10/12 10:35:59;;;;;;;19.97;16.37;;;18.10;99.90;;;;;;5050057;28;20179;-76
2022/10/12 10:38:26;;;;;;;17.00;14.97;;;18.10;99.90;;;;;;5052162;28;20178;-77
2022/10/12 10:40:56;;;;;;;19.83;14.90;;;18.10;99.90;;;;;;5053670;28;20286;-76
2022/10/12 10:43:30;;;;;;;17.27;13.20;;;18.00;99.90;;;;;;5053507;28;20179;-74
2022/10/12 10:46:02;;;;;;;19.83;14.27;;;18.00;99.90;;;;;;5039556;28;20233;-72
2022/10/12 10:48:49;;;;;;;20.53;14.80;;;18.00;99.90;;;;;;5033413;28;20187;-69
2022/10/12 10:51:15;;;;;;;27.23;13.53;;;18.00;99.90;;;;;;5032842;28;20187;-71
2022/10/12 10:53:44;;;;;;;16.23;13.77;;;18.00;99.90;;;;;;5033635;28;20234;-70
2022/10/12 10:56:29;;;;;;;21.20;13.93;;;18.00;99.90;;;;;;5048797;28;20221;-70
2022/10/12 10:58:57;;;;;;;19.03;13.53;;;18.10;99.90;;;;;;5052123;28;20190;-70
2022/10/12 11:01:58;;;;;;;17.57;13.70;;;18.20;99.90;;;;;;5051061;28;20210;-75
2022/10/12 11:04:39;;;;;;;19.00;13.50;;;18.20;99.90;;;;;;5043958;28;20667;-75
2022/10/12 11:07:19;;;;;;;18.67;13.37;;;18.30;99.90;;;;;;5032006;28;20232;-75
2022/10/12 11:09:50;;;;;;;19.00;13.23;;;18.60;99.90;;;;;;5033176;28;20178;-75
2022/10/12 11:12:29;;;;;;;17.83;13.43;;;18.70;99.90;;;;;;5032116;28;20183;-76
2022/10/12 11:15:19;;;;;;;22.70;20.10;;;18.80;99.90;;;;;;5037495;28;20206;-76
2022/10/12 11:17:57;;;;;;;44.33;40.80;;;19.00;99.90;;;;;;5050909;28;20202;-76
2022/10/12 11:20:35;;;;;;;74.00;69.23;;;19.30;99.90;;;;;;5052877;28;20185;-75
2022/10/12 11:23:13;;;;;;;72.67;67.87;;;19.40;99.90;;;;;;5053060;28;20224;-75
2022/10/12 11:25:47;;;;;;;62.00;57.40;;;19.40;99.90;;;;;;5042162;28;20198;-76
2022/10/12 11:28:15;;;;;;;47.00;43.63;;;19.40;99.90;;;;;;5032801;28;20189;-75
2022/10/12 11:30:46;;;;;;;46.40;42.77;;;19.60;99.90;;;;;;5033483;28;20183;-75
2022/10/12 11:33:18;;;;;;;42.63;39.43;;;19.80;99.90;;;;;;5031868;28;20274;-75
2022/10/12 11:35:45;;;;;;;40.93;37.80;;;19.90;99.90;;;;;;5044031;28;20182;-75
2022/10/12 11:38:19;;;;;;;36.83;34.10;;;20.00;99.90;;;;;;5053336;28;20178;-76
2022/10/12 11:41:17;;;;;;;34.17;31.27;;;20.00;99.90;;;;;;5053334;28;20182;-75
2022/10/12 11:44:01;;;;;;;39.50;36.17;;;20.10;99.90;;;;;;5052498;28;20202;-76
2022/10/12 11:46:43;;;;;;;33.67;30.77;;;20.00;99.90;;;;;;5032908;28;20554;-75
2022/10/12 11:49:44;;;;;;;32.43;29.77;;;20.00;99.90;;;;;;5032836;28;20183;-75
2022/10/12 11:52:11;;;;;;;47.23;43.23;;;20.10;99.90;;;;;;5025856;28;20317;-75
2022/10/12 11:54:56;;;;;;;38.30;35.27;;;20.10;99.90;;;;;;5032979;28;20219;-75
2022/10/12 11:57:29;;;;;;;36.80;34.00;;;20.00;99.90;;;;;;5032311;28;20648;-75
2022/10/12 11:59:57;;;;;;;31.53;28.80;;;19.70;99.90;;;;;;5047683;28;20183;-75
2022/10/12 12:02:28;;;;;;;32.87;29.97;;;19.50;99.90;;;;;;5049402;28;20200;-75
2022/10/12 12:04:55;;;;;;;29.70;27.00;;;19.60;99.90;;;;;;5050546;28;20204;-75
2022/10/12 12:07:41;;;;;;;26.97;24.23;;;19.80;99.90;;;;;;5037785;28;20174;-75
2022/10/12 12:10:26;;;;;;;31.90;28.83;;;19.90;99.90;;;;;;5058324;28;20249;-75
2022/10/12 12:13:11;;;;;;;39.27;36.07;;;19.90;99.90;;;;;;5052529;28;20553;-75
2022/10/12 12:15:46;;;;;;;28.13;25.37;;;20.20;99.90;;;;;;5044344;28;20648;-74
2022/10/12 12:18:24;;;;;;;44.13;40.90;;;20.20;99.90;;;;;;5032339;28;20185;-74
2022/10/12 12:21:02;;;;;;;53.30;49.70;;;20.20;99.90;;;;;;5031702;28;20186;-74
2022/10/12 12:23:39;;;;;;;45.97;42.57;;;20.00;99.90;;;;;;5032298;28;20194;-74
2022/10/12 12:26:16;;;;;;;45.93;42.33;;;19.80;99.90;;;;;;5043658;28;20189;-75
2022/10/12 12:28:51;;;;;;;43.67;39.53;;;19.80;99.90;;;;;;5052162;28;20205;-74
2022/10/12 12:31:26;;;;;;;37.13;34.47;;;19.80;99.90;;;;;;5054603;28;20631;-74
2022/10/12 12:34:05;;;;;;;35.70;32.77;;;20.00;99.90;;;;;;5052994;28;20206;-74
2022/10/12 12:36:34;;;;;;;43.43;40.30;;;20.10;99.90;;;;;;5049968;28;20503;-75
2022/10/12 12:39:03;;;;;;;52.20;48.20;;;20.30;99.90;;;;;;5051140;28;20185;-76
2022/10/12 12:41:46;;;;;;;49.57;46.27;;;20.60;99.90;;;;;;5051506;28;20557;-74
2022/10/12 12:44:39;;;;;;;28.70;26.33;;;20.90;99.90;;;;;;5050111;28;20195;-74